La Crosse, IN (46348)

1:20 PM CDT on August 31, 2015 (GMT -0500)
LaCrosse | | Change Station
CLOSE
Current Station
Personal Weather Station
Location: La Crosse, IN
Elevation: 705 ft
Nearby Weather Stations

Elev 705 ft 41.35 °N, 86.93 °W | Updated 1 minute ago

Partly Cloudy
Partly Cloudy
83.4 °F
Feels Like 89 °F
N
0.0
Wind Variable Wind from NNW
Gusts 0.0 mph

Today
High -- | Low -- °F
--% Chance of Precip.
Yesterday
High -- | Low -- °F
Precip. -- in
6:12 AM 7:22 PM
Waning Gibbous, 94% visible
Pressure 30.08 in
Visibility 10.0 miles
Clouds Few 2800 ft
Heat Index 89 °F
Dew Point 73 °F
Humidity 70%
Rainfall 0.00 in
Snow Depth Not available.
UV 9 out of 12
Pollen 10.40 out of 12
Air Quality Not available.
Flu Activity Not available.
METAR KVPZ 311756Z AUTO VRB04KT 10SM FEW028 28/21 A3009 RMK AO2 SLP184 T02780206 10283 20189 58007 TSNO
Pressure 30.08 in
Visibility 10.0 miles
Clouds Few 2800 ft
Heat Index 89 °F
Dew Point 73 °F
Humidity 70%
Rainfall 0.00 in
Snow Depth Not available.
UV 9 out of 12
Pollen 10.40 out of 12
Air Quality Not available.
Flu Activity Not available.
METAR KVPZ 311756Z AUTO VRB04KT 10SM FEW028 28/21 A3009 RMK AO2 SLP184 T02780206 10283 20189 58007 TSNO

10-Day Weather Forecast

×

Almanac

Astronomy

Aug. 31, 2015 Rise Set
Actual Time
Civil Twilight
Nautical Twilight
Astronomical Twilight
Moon
Length of Visible Light
Length of Day
Tomorrow will be .
, % of the Moon is Illuminated

Today's Extremes

State Highs State Lows

Community

WunderPhotos

Upload Photos

1,851,330 photos uploaded!

WunderBlogs® & News

Nearby

Air Quality

  Air Quality AQ Index Pollutant
Not available.

Snow Depth

Station Depth Elevation

Earthquake Activity

City Distance Mag. Time & Date
Minimum magnitude displayed is 2.5.

Coastal Water Temperatures

Place Temperature

Stations

Nearby Weather Stations

Station Location Temp. Windchill Dew Point Humidity Wind Precip. Elev Updated Type